sensor_id;sensor_type;location;lat;lon;timestamp;P1;durP1;ratioP1;P2;durP2;ratioP2
19617;SDS011;9956;51.006;13.670;2022-12-18T00:01:56;42.20;;;22.67;;
19617;SDS011;9956;51.006;13.670;2022-12-18T00:06:58;35.27;;;20.60;;
19617;SDS011;9956;51.006;13.670;2022-12-18T00:11:58;37.40;;;21.23;;
19617;SDS011;9956;51.006;13.670;2022-12-18T00:16:58;35.83;;;21.03;;
19617;SDS011;9956;51.006;13.670;2022-12-18T00:22:00;40.77;;;23.10;;
19617;SDS011;9956;51.006;13.670;2022-12-18T00:27:01;39.70;;;21.37;;
19617;SDS011;9956;51.006;13.670;2022-12-18T00:32:01;45.40;;;20.67;;
19617;SDS011;9956;51.006;13.670;2022-12-18T00:37:02;39.80;;;22.33;;
19617;SDS011;9956;51.006;13.670;2022-12-18T00:42:02;36.63;;;19.40;;
19617;SDS011;9956;51.006;13.670;2022-12-18T00:47:21;33.57;;;19.17;;
19617;SDS011;9956;51.006;13.670;2022-12-18T00:52:22;31.57;;;17.63;;
19617;SDS011;9956;51.006;13.670;2022-12-18T00:57:22;32.83;;;18.60;;
19617;SDS011;9956;51.006;13.670;2022-12-18T01:02:23;36.07;;;19.77;;
19617;SDS011;9956;51.006;13.670;2022-12-18T01:07:23;33.80;;;17.80;;
19617;SDS011;9956;51.006;13.670;2022-12-18T01:12:24;33.33;;;17.50;;
19617;SDS011;9956;51.006;13.670;2022-12-18T01:17:24;33.40;;;19.83;;
19617;SDS011;9956;51.006;13.670;2022-12-18T01:22:25;30.93;;;18.80;;
19617;SDS011;9956;51.006;13.670;2022-12-18T01:27:25;35.43;;;17.70;;
19617;SDS011;9956;51.006;13.670;2022-12-18T01:32:26;32.67;;;16.63;;
19617;SDS011;9956;51.006;13.670;2022-12-18T01:37:26;30.67;;;16.43;;
19617;SDS011;9956;51.006;13.670;2022-12-18T01:42:26;30.00;;;15.97;;
19617;SDS011;9956;51.006;13.670;2022-12-18T01:52:35;32.63;;;14.33;;
19617;SDS011;9956;51.006;13.670;2022-12-18T01:57:40;23.60;;;14.63;;
19617;SDS011;9956;51.006;13.670;2022-12-18T02:02:43;29.40;;;13.83;;
19617;SDS011;9956;51.006;13.670;2022-12-18T02:07:50;20.20;;;13.80;;
19617;SDS011;9956;51.006;13.670;2022-12-18T02:19:00;25.77;;;13.53;;
19617;SDS011;9956;51.006;13.670;2022-12-18T02:29:39;28.00;;;14.13;;
19617;SDS011;9956;51.006;13.670;2022-12-18T02:34:42;28.57;;;14.20;;
19617;SDS011;9956;51.006;13.670;2022-12-18T02:39:48;26.70;;;14.53;;
19617;SDS011;9956;51.006;13.670;2022-12-18T02:44:50;22.20;;;13.70;;
19617;SDS011;9956;51.006;13.670;2022-12-18T03:00:51;24.30;;;13.40;;
19617;SDS011;9956;51.006;13.670;2022-12-18T03:06:02;30.60;;;13.33;;
19617;SDS011;9956;51.006;13.670;2022-12-18T03:11:10;25.60;;;12.73;;
19617;SDS011;9956;51.006;13.670;2022-12-18T03:16:15;20.07;;;11.43;;
19617;SDS011;9956;51.006;13.670;2022-12-18T03:21:22;20.60;;;11.13;;
19617;SDS011;9956;51.006;13.670;2022-12-18T03:26:25;17.67;;;9.87;;
19617;SDS011;9956;51.006;13.670;2022-12-18T03:31:30;16.90;;;10.53;;
19617;SDS011;9956;51.006;13.670;2022-12-18T03:36:32;23.17;;;11.13;;
19617;SDS011;9956;51.006;13.670;2022-12-18T03:41:39;18.47;;;10.10;;
19617;SDS011;9956;51.006;13.670;2022-12-18T03:52:28;17.63;;;10.20;;
19617;SDS011;9956;51.006;13.670;2022-12-18T03:57:31;19.57;;;10.60;;
19617;SDS011;9956;51.006;13.670;2022-12-18T04:02:32;20.37;;;12.37;;
19617;SDS011;9956;51.006;13.670;2022-12-18T04:07:36;17.40;;;10.20;;
19617;SDS011;9956;51.006;13.670;2022-12-18T04:12:40;20.83;;;11.13;;
19617;SDS011;9956;51.006;13.670;2022-12-18T04:17:47;19.70;;;9.93;;
19617;SDS011;9956;51.006;13.670;2022-12-18T04:22:50;17.00;;;9.43;;
19617;SDS011;9956;51.006;13.670;2022-12-18T04:27:53;21.27;;;11.30;;
19617;SDS011;9956;51.006;13.670;2022-12-18T04:32:54;17.70;;;10.90;;
19617;SDS011;9956;51.006;13.670;2022-12-18T04:37:56;19.90;;;10.57;;
19617;SDS011;9956;51.006;13.670;2022-12-18T04:42:56;22.30;;;10.10;;
19617;SDS011;9956;51.006;13.670;2022-12-18T04:47:57;22.47;;;11.87;;
19617;SDS011;9956;51.006;13.670;2022-12-18T04:52:59;19.13;;;11.10;;
19617;SDS011;9956;51.006;13.670;2022-12-18T04:57:59;17.77;;;10.80;;
19617;SDS011;9956;51.006;13.670;2022-12-18T05:03:00;20.47;;;11.57;;
19617;SDS011;9956;51.006;13.670;2022-12-18T05:08:02;17.43;;;10.13;;
19617;SDS011;9956;51.006;13.670;2022-12-18T05:13:02;18.43;;;10.27;;
19617;SDS011;9956;51.006;13.670;2022-12-18T05:18:03;15.33;;;9.53;;
19617;SDS011;9956;51.006;13.670;2022-12-18T05:23:04;19.13;;;10.10;;
19617;SDS011;9956;51.006;13.670;2022-12-18T05:28:04;17.50;;;9.33;;
19617;SDS011;9956;51.006;13.670;2022-12-18T05:33:05;18.80;;;10.07;;
19617;SDS011;9956;51.006;13.670;2022-12-18T05:38:05;18.27;;;9.50;;
19617;SDS011;9956;51.006;13.670;2022-12-18T05:43:06;18.33;;;9.83;;
19617;SDS011;9956;51.006;13.670;2022-12-18T05:48:06;14.70;;;8.37;;
19617;SDS011;9956;51.006;13.670;2022-12-18T05:53:07;16.90;;;8.70;;
19617;SDS011;9956;51.006;13.670;2022-12-18T05:58:08;17.87;;;9.90;;
19617;SDS011;9956;51.006;13.670;2022-12-18T06:03:10;17.30;;;8.50;;
19617;SDS011;9956;51.006;13.670;2022-12-18T06:08:12;13.77;;;8.30;;
19617;SDS011;9956;51.006;13.670;2022-12-18T06:13:13;20.10;;;10.70;;
19617;SDS011;9956;51.006;13.670;2022-12-18T06:18:13;17.13;;;8.63;;
19617;SDS011;9956;51.006;13.670;2022-12-18T06:23:14;16.73;;;8.93;;
19617;SDS011;9956;51.006;13.670;2022-12-18T06:28:14;22.33;;;9.83;;
19617;SDS011;9956;51.006;13.670;2022-12-18T06:33:15;17.13;;;8.73;;
19617;SDS011;9956;51.006;13.670;2022-12-18T06:38:16;20.37;;;9.50;;
19617;SDS011;9956;51.006;13.670;2022-12-18T06:43:16;15.13;;;8.17;;
19617;SDS011;9956;51.006;13.670;2022-12-18T06:48:16;13.27;;;7.90;;
19617;SDS011;9956;51.006;13.670;2022-12-18T06:53:17;16.63;;;9.23;;
19617;SDS011;9956;51.006;13.670;2022-12-18T06:58:17;17.07;;;8.80;;
19617;SDS011;9956;51.006;13.670;2022-12-18T07:03:18;18.57;;;10.33;;
19617;SDS011;9956;51.006;13.670;2022-12-18T07:08:18;15.33;;;7.50;;
19617;SDS011;9956;51.006;13.670;2022-12-18T07:13:19;16.27;;;8.50;;
19617;SDS011;9956;51.006;13.670;2022-12-18T07:18:19;21.37;;;12.00;;
19617;SDS011;9956;51.006;13.670;2022-12-18T07:23:20;27.80;;;15.53;;
19617;SDS011;9956;51.006;13.670;2022-12-18T07:28:20;23.30;;;12.43;;
19617;SDS011;9956;51.006;13.670;2022-12-18T07:33:21;20.10;;;10.47;;
19617;SDS011;9956;51.006;13.670;2022-12-18T07:38:21;18.63;;;10.93;;
19617;SDS011;9956;51.006;13.670;2022-12-18T07:43:22;16.80;;;10.37;;
19617;SDS011;9956;51.006;13.670;2022-12-18T07:48:22;20.57;;;12.10;;
19617;SDS011;9956;51.006;13.670;2022-12-18T07:53:23;22.17;;;12.70;;
19617;SDS011;9956;51.006;13.670;2022-12-18T07:58:23;19.57;;;10.70;;
19617;SDS011;9956;51.006;13.670;2022-12-18T08:03:24;18.07;;;10.70;;
19617;SDS011;9956;51.006;13.670;2022-12-18T08:08:24;15.47;;;10.80;;
19617;SDS011;9956;51.006;13.670;2022-12-18T08:13:25;11.07;;;7.13;;
19617;SDS011;9956;51.006;13.670;2022-12-18T08:18:25;10.25;;;6.88;;
19617;SDS011;9956;51.006;13.670;2022-12-18T08:23:26;59.28;;;41.00;;
19617;SDS011;9956;51.006;13.670;2022-12-18T08:28:27;15.13;;;10.15;;
19617;SDS011;9956;51.006;13.670;2022-12-18T08:33:27;21.42;;;15.32;;
19617;SDS011;9956;51.006;13.670;2022-12-18T08:38:28;22.40;;;16.33;;
19617;SDS011;9956;51.006;13.670;2022-12-18T08:43:28;18.33;;;13.43;;
19617;SDS011;9956;51.006;13.670;2022-12-18T08:48:47;22.35;;;14.73;;
19617;SDS011;9956;51.006;13.670;2022-12-18T08:53:49;22.27;;;16.55;;
19617;SDS011;9956;51.006;13.670;2022-12-18T08:58:53;21.83;;;14.70;;
19617;SDS011;9956;51.006;13.670;2022-12-18T09:03:54;26.88;;;21.63;;
19617;SDS011;9956;51.006;13.670;2022-12-18T09:08:54;22.48;;;17.20;;
19617;SDS011;9956;51.006;13.670;2022-12-18T09:13:55;20.33;;;15.73;;
19617;SDS011;9956;51.006;13.670;2022-12-18T09:18:56;19.38;;;15.75;;
19617;SDS011;9956;51.006;13.670;2022-12-18T09:24:00;23.40;;;18.52;;
19617;SDS011;9956;51.006;13.670;2022-12-18T09:29:02;28.75;;;23.02;;
19617;SDS011;9956;51.006;13.670;2022-12-18T09:34:03;29.92;;;22.17;;
19617;SDS011;9956;51.006;13.670;2022-12-18T09:39:03;28.17;;;23.25;;
19617;SDS011;9956;51.006;13.670;2022-12-18T09:44:25;25.65;;;19.98;;
19617;SDS011;9956;51.006;13.670;2022-12-18T09:49:41;24.63;;;16.83;;
19617;SDS011;9956;51.006;13.670;2022-12-18T09:54:44;25.95;;;20.65;;
19617;SDS011;9956;51.006;13.670;2022-12-18T09:59:53;34.53;;;27.95;;
19617;SDS011;9956;51.006;13.670;2022-12-18T10:05:02;38.00;;;32.20;;
19617;SDS011;9956;51.006;13.670;2022-12-18T10:10:26;35.15;;;29.38;;
19617;SDS011;9956;51.006;13.670;2022-12-18T10:15:30;29.30;;;26.13;;
19617;SDS011;9956;51.006;13.670;2022-12-18T10:20:38;29.30;;;25.85;;
19617;SDS011;9956;51.006;13.670;2022-12-18T10:25:52;27.20;;;22.50;;
19617;SDS011;9956;51.006;13.670;2022-12-18T10:30:56;23.77;;;20.20;;
19617;SDS011;9956;51.006;13.670;2022-12-18T10:35:57;25.88;;;19.65;;
19617;SDS011;9956;51.006;13.670;2022-12-18T10:51:03;26.00;;;21.35;;
19617;SDS011;9956;51.006;13.670;2022-12-18T10:56:04;21.70;;;18.33;;
19617;SDS011;9956;51.006;13.670;2022-12-18T11:01:10;27.20;;;20.67;;
19617;SDS011;9956;51.006;13.670;2022-12-18T11:06:13;22.33;;;18.65;;
19617;SDS011;9956;51.006;13.670;2022-12-18T11:11:19;25.27;;;17.92;;
19617;SDS011;9956;51.006;13.670;2022-12-18T11:16:21;22.52;;;17.50;;
19617;SDS011;9956;51.006;13.670;2022-12-18T11:21:22;22.20;;;16.83;;
19617;SDS011;9956;51.006;13.670;2022-12-18T11:26:22;23.85;;;16.58;;
19617;SDS011;9956;51.006;13.670;2022-12-18T11:31:33;22.27;;;16.27;;
19617;SDS011;9956;51.006;13.670;2022-12-18T11:36:36;24.80;;;16.27;;
19617;SDS011;9956;51.006;13.670;2022-12-18T11:41:41;24.88;;;16.73;;
19617;SDS011;9956;51.006;13.670;2022-12-18T11:52:38;26.15;;;17.88;;
19617;SDS011;9956;51.006;13.670;2022-12-18T11:57:57;28.00;;;19.92;;
19617;SDS011;9956;51.006;13.670;2022-12-18T12:03:21;28.70;;;20.75;;
19617;SDS011;9956;51.006;13.670;2022-12-18T12:19:11;29.23;;;19.98;;
19617;SDS011;9956;51.006;13.670;2022-12-18T12:24:22;28.20;;;19.58;;
19617;SDS011;9956;51.006;13.670;2022-12-18T12:40:10;28.75;;;18.15;;
19617;SDS011;9956;51.006;13.670;2022-12-18T12:45:30;29.67;;;18.50;;
19617;SDS011;9956;51.006;13.670;2022-12-18T12:50:34;29.20;;;18.90;;
19617;SDS011;9956;51.006;13.670;2022-12-18T12:55:35;30.40;;;18.67;;
19617;SDS011;9956;51.006;13.670;2022-12-18T13:00:39;29.05;;;18.10;;
19617;SDS011;9956;51.006;13.670;2022-12-18T13:05:51;27.75;;;18.25;;
19617;SDS011;9956;51.006;13.670;2022-12-18T13:10:54;27.35;;;17.88;;
19617;SDS011;9956;51.006;13.670;2022-12-18T13:16:18;30.05;;;18.42;;
19617;SDS011;9956;51.006;13.670;2022-12-18T13:21:25;32.78;;;19.25;;
19617;SDS011;9956;51.006;13.670;2022-12-18T13:26:40;29.10;;;18.35;;
19617;SDS011;9956;51.006;13.670;2022-12-18T13:36:41;32.42;;;17.38;;
19617;SDS011;9956;51.006;13.670;2022-12-18T13:41:42;27.73;;;17.30;;
19617;SDS011;9956;51.006;13.670;2022-12-18T13:46:44;29.58;;;17.10;;
19617;SDS011;9956;51.006;13.670;2022-12-18T13:51:50;28.45;;;15.98;;
19617;SDS011;9956;51.006;13.670;2022-12-18T13:56:51;28.08;;;16.05;;
19617;SDS011;9956;51.006;13.670;2022-12-18T14:01:53;28.90;;;15.82;;
19617;SDS011;9956;51.006;13.670;2022-12-18T14:07:01;29.63;;;15.68;;
19617;SDS011;9956;51.006;13.670;2022-12-18T14:12:04;26.52;;;15.88;;
19617;SDS011;9956;51.006;13.670;2022-12-18T14:17:24;27.13;;;16.48;;
19617;SDS011;9956;51.006;13.670;2022-12-18T14:22:25;28.50;;;16.00;;
19617;SDS011;9956;51.006;13.670;2022-12-18T14:27:30;28.58;;;16.42;;
19617;SDS011;9956;51.006;13.670;2022-12-18T14:32:30;29.08;;;15.85;;
19617;SDS011;9956;51.006;13.670;2022-12-18T14:37:31;28.27;;;14.70;;
19617;SDS011;9956;51.006;13.670;2022-12-18T14:42:31;24.58;;;14.27;;
19617;SDS011;9956;51.006;13.670;2022-12-18T14:47:32;25.70;;;15.00;;
19617;SDS011;9956;51.006;13.670;2022-12-18T14:52:32;27.15;;;14.88;;
19617;SDS011;9956;51.006;13.670;2022-12-18T14:57:35;26.50;;;13.77;;
19617;SDS011;9956;51.006;13.670;2022-12-18T15:02:37;37.13;;;22.98;;
19617;SDS011;9956;51.006;13.670;2022-12-18T15:07:42;75.23;;;50.07;;
19617;SDS011;9956;51.006;13.670;2022-12-18T15:12:45;107.13;;;72.70;;
19617;SDS011;9956;51.006;13.670;2022-12-18T15:17:47;33.07;;;19.73;;
19617;SDS011;9956;51.006;13.670;2022-12-18T15:22:48;32.77;;;16.70;;
19617;SDS011;9956;51.006;13.670;2022-12-18T15:27:48;35.10;;;17.37;;
19617;SDS011;9956;51.006;13.670;2022-12-18T15:32:49;30.40;;;15.43;;
19617;SDS011;9956;51.006;13.670;2022-12-18T15:37:51;32.87;;;18.77;;
19617;SDS011;9956;51.006;13.670;2022-12-18T15:42:52;43.47;;;22.40;;
19617;SDS011;9956;51.006;13.670;2022-12-18T15:48:18;30.90;;;17.30;;
19617;SDS011;9956;51.006;13.670;2022-12-18T15:53:21;34.93;;;17.90;;
19617;SDS011;9956;51.006;13.670;2022-12-18T15:58:22;39.33;;;22.23;;
19617;SDS011;9956;51.006;13.670;2022-12-18T16:03:22;36.60;;;20.60;;
19617;SDS011;9956;51.006;13.670;2022-12-18T16:08:22;34.13;;;18.87;;
19617;SDS011;9956;51.006;13.670;2022-12-18T16:13:23;120.43;;;78.67;;
19617;SDS011;9956;51.006;13.670;2022-12-18T16:18:23;34.17;;;18.87;;
19617;SDS011;9956;51.006;13.670;2022-12-18T16:23:24;33.60;;;19.53;;
19617;SDS011;9956;51.006;13.670;2022-12-18T16:28:24;35.53;;;20.27;;
19617;SDS011;9956;51.006;13.670;2022-12-18T16:33:25;31.97;;;18.90;;
19617;SDS011;9956;51.006;13.670;2022-12-18T16:38:26;38.23;;;20.73;;
19617;SDS011;9956;51.006;13.670;2022-12-18T16:43:26;39.63;;;21.93;;
19617;SDS011;9956;51.006;13.670;2022-12-18T16:48:27;60.07;;;30.43;;
19617;SDS011;9956;51.006;13.670;2022-12-18T16:53:27;36.90;;;21.00;;
19617;SDS011;9956;51.006;13.670;2022-12-18T16:58:28;43.50;;;24.40;;
19617;SDS011;9956;51.006;13.670;2022-12-18T17:03:29;57.57;;;32.63;;
19617;SDS011;9956;51.006;13.670;2022-12-18T17:08:30;59.00;;;34.27;;
19617;SDS011;9956;51.006;13.670;2022-12-18T17:13:30;63.30;;;35.67;;
19617;SDS011;9956;51.006;13.670;2022-12-18T17:18:31;70.00;;;42.13;;
19617;SDS011;9956;51.006;13.670;2022-12-18T17:23:32;67.83;;;39.77;;
19617;SDS011;9956;51.006;13.670;2022-12-18T17:28:33;59.93;;;38.33;;
19617;SDS011;9956;51.006;13.670;2022-12-18T17:33:34;62.67;;;38.80;;
19617;SDS011;9956;51.006;13.670;2022-12-18T17:38:34;63.30;;;39.53;;
19617;SDS011;9956;51.006;13.670;2022-12-18T17:43:35;79.97;;;43.83;;
19617;SDS011;9956;51.006;13.670;2022-12-18T17:48:36;70.87;;;38.13;;
19617;SDS011;9956;51.006;13.670;2022-12-18T17:53:36;59.60;;;32.80;;
19617;SDS011;9956;51.006;13.670;2022-12-18T17:58:38;48.47;;;29.53;;
19617;SDS011;9956;51.006;13.670;2022-12-18T18:03:39;63.13;;;32.73;;
19617;SDS011;9956;51.006;13.670;2022-12-18T18:08:40;48.03;;;30.20;;
19617;SDS011;9956;51.006;13.670;2022-12-18T18:13:40;50.40;;;29.60;;
19617;SDS011;9956;51.006;13.670;2022-12-18T18:19:00;47.27;;;29.17;;
19617;SDS011;9956;51.006;13.670;2022-12-18T18:24:02;48.77;;;27.33;;
19617;SDS011;9956;51.006;13.670;2022-12-18T18:29:04;52.40;;;29.40;;
19617;SDS011;9956;51.006;13.670;2022-12-18T18:34:11;45.13;;;28.53;;
19617;SDS011;9956;51.006;13.670;2022-12-18T18:39:17;51.70;;;30.27;;
19617;SDS011;9956;51.006;13.670;2022-12-18T18:44:20;51.10;;;29.13;;
19617;SDS011;9956;51.006;13.670;2022-12-18T18:49:21;52.43;;;32.00;;
19617;SDS011;9956;51.006;13.670;2022-12-18T18:54:24;45.47;;;27.00;;
19617;SDS011;9956;51.006;13.670;2022-12-18T18:59:25;51.73;;;31.77;;
19617;SDS011;9956;51.006;13.670;2022-12-18T19:04:25;47.33;;;29.43;;
19617;SDS011;9956;51.006;13.670;2022-12-18T19:09:26;47.93;;;27.73;;
19617;SDS011;9956;51.006;13.670;2022-12-18T19:14:26;52.70;;;29.77;;
19617;SDS011;9956;51.006;13.670;2022-12-18T19:19:27;54.33;;;31.53;;
19617;SDS011;9956;51.006;13.670;2022-12-18T19:24:28;51.33;;;31.23;;
19617;SDS011;9956;51.006;13.670;2022-12-18T19:29:28;66.07;;;36.87;;
19617;SDS011;9956;51.006;13.670;2022-12-18T19:34:29;59.60;;;36.60;;
19617;SDS011;9956;51.006;13.670;2022-12-18T19:39:29;71.40;;;43.17;;
19617;SDS011;9956;51.006;13.670;2022-12-18T19:44:30;51.00;;;31.00;;
19617;SDS011;9956;51.006;13.670;2022-12-18T19:49:30;57.17;;;32.60;;
19617;SDS011;9956;51.006;13.670;2022-12-18T19:54:31;47.40;;;30.03;;
19617;SDS011;9956;51.006;13.670;2022-12-18T19:59:32;49.97;;;28.67;;
19617;SDS011;9956;51.006;13.670;2022-12-18T20:04:32;49.90;;;29.23;;
19617;SDS011;9956;51.006;13.670;2022-12-18T20:09:33;62.57;;;38.83;;
19617;SDS011;9956;51.006;13.670;2022-12-18T20:14:35;47.73;;;28.63;;
19617;SDS011;9956;51.006;13.670;2022-12-18T20:19:36;49.47;;;27.60;;
19617;SDS011;9956;51.006;13.670;2022-12-18T20:24:36;47.30;;;27.53;;
19617;SDS011;9956;51.006;13.670;2022-12-18T20:29:37;42.07;;;26.17;;
19617;SDS011;9956;51.006;13.670;2022-12-18T20:34:37;44.50;;;27.60;;
19617;SDS011;9956;51.006;13.670;2022-12-18T20:39:38;43.77;;;27.20;;
19617;SDS011;9956;51.006;13.670;2022-12-18T20:44:38;43.37;;;26.67;;
19617;SDS011;9956;51.006;13.670;2022-12-18T20:49:39;32.90;;;20.17;;
19617;SDS011;9956;51.006;13.670;2022-12-18T20:54:40;80.73;;;44.73;;
19617;SDS011;9956;51.006;13.670;2022-12-18T20:59:40;58.90;;;30.53;;
19617;SDS011;9956;51.006;13.670;2022-12-18T21:04:40;42.97;;;24.27;;
19617;SDS011;9956;51.006;13.670;2022-12-18T21:09:41;58.83;;;35.97;;
19617;SDS011;9956;51.006;13.670;2022-12-18T21:14:41;52.93;;;31.53;;
19617;SDS011;9956;51.006;13.670;2022-12-18T21:19:43;53.23;;;29.40;;
19617;SDS011;9956;51.006;13.670;2022-12-18T21:24:43;44.80;;;27.17;;
19617;SDS011;9956;51.006;13.670;2022-12-18T21:29:44;49.93;;;27.23;;
19617;SDS011;9956;51.006;13.670;2022-12-18T21:34:46;41.50;;;26.57;;
19617;SDS011;9956;51.006;13.670;2022-12-18T21:39:46;35.27;;;20.93;;
19617;SDS011;9956;51.006;13.670;2022-12-18T21:44:47;21.47;;;12.57;;
19617;SDS011;9956;51.006;13.670;2022-12-18T21:49:51;32.57;;;20.37;;
19617;SDS011;9956;51.006;13.670;2022-12-18T21:54:52;27.33;;;18.40;;
19617;SDS011;9956;51.006;13.670;2022-12-18T21:59:52;35.80;;;22.38;;
19617;SDS011;9956;51.006;13.670;2022-12-18T22:04:53;23.17;;;13.77;;
19617;SDS011;9956;51.006;13.670;2022-12-18T22:09:53;21.07;;;12.23;;
19617;SDS011;9956;51.006;13.670;2022-12-18T22:14:55;20.73;;;12.13;;
19617;SDS011;9956;51.006;13.670;2022-12-18T22:19:55;18.63;;;11.25;;
19617;SDS011;9956;51.006;13.670;2022-12-18T22:24:56;17.00;;;10.60;;
19617;SDS011;9956;51.006;13.670;2022-12-18T22:29:56;17.80;;;11.15;;
19617;SDS011;9956;51.006;13.670;2022-12-18T22:35:03;21.15;;;11.95;;
19617;SDS011;9956;51.006;13.670;2022-12-18T22:40:04;20.23;;;10.68;;
19617;SDS011;9956;51.006;13.670;2022-12-18T22:45:07;19.90;;;11.35;;
19617;SDS011;9956;51.006;13.670;2022-12-18T22:50:09;23.83;;;12.13;;
19617;SDS011;9956;51.006;13.670;2022-12-18T22:55:12;21.08;;;11.20;;
19617;SDS011;9956;51.006;13.670;2022-12-18T23:00:13;22.58;;;12.35;;
19617;SDS011;9956;51.006;13.670;2022-12-18T23:05:13;21.60;;;11.80;;
19617;SDS011;9956;51.006;13.670;2022-12-18T23:10:14;20.58;;;12.82;;
19617;SDS011;9956;51.006;13.670;2022-12-18T23:15:14;19.15;;;11.73;;
19617;SDS011;9956;51.006;13.670;2022-12-18T23:20:15;17.73;;;11.90;;
19617;SDS011;9956;51.006;13.670;2022-12-18T23:25:15;25.30;;;12.85;;
19617;SDS011;9956;51.006;13.670;2022-12-18T23:30:16;21.38;;;12.02;;
19617;SDS011;9956;51.006;13.670;2022-12-18T23:35:16;16.98;;;10.73;;
19617;SDS011;9956;51.006;13.670;2022-12-18T23:40:17;20.42;;;12.02;;
19617;SDS011;9956;51.006;13.670;2022-12-18T23:45:18;21.30;;;12.00;;
19617;SDS011;9956;51.006;13.670;2022-12-18T23:50:18;20.15;;;12.00;;
19617;SDS011;9956;51.006;13.670;2022-12-18T23:55:19;20.48;;;11.70;;
